createdAt,value
2018-12-21T00:01:01.042Z,67.60
2018-12-21T00:06:04.226Z,67.30
2018-12-21T00:11:07.406Z,67.60
2018-12-21T00:16:10.754Z,67.50
2018-12-21T00:21:21.633Z,67.10
2018-12-21T00:26:19.206Z,67.80
2018-12-21T00:31:27.832Z,67.60
2018-12-21T00:36:36.458Z,67.70
2018-12-21T00:41:38.949Z,67.80
2018-12-21T00:46:46.443Z,67.70
2018-12-21T00:51:50.258Z,68.00
2018-12-21T01:01:55.883Z,67.70
2018-12-21T01:06:59.151Z,68.20
2018-12-21T01:12:02.506Z,68.00
2018-12-21T01:17:06.134Z,67.40
2018-12-21T01:22:09.821Z,68.00
2018-12-21T01:27:13.038Z,67.40
2018-12-21T01:32:16.210Z,67.60
2018-12-21T01:37:19.394Z,67.50
2018-12-21T01:42:22.589Z,67.50
2018-12-21T01:47:25.831Z,67.50
2018-12-21T01:52:29.074Z,67.40
2018-12-21T01:57:32.319Z,67.60
2018-12-21T02:02:35.571Z,67.30
2018-12-21T02:07:38.754Z,67.30
2018-12-21T02:12:41.963Z,67.50
2018-12-21T02:17:45.614Z,67.30
2018-12-21T02:22:48.776Z,67.20
2018-12-21T02:27:51.959Z,67.20
2018-12-21T02:32:55.291Z,68.00
2018-12-21T02:37:58.503Z,67.40
2018-12-21T02:43:01.898Z,67.40
2018-12-21T02:48:05.182Z,67.30
2018-12-21T02:53:08.449Z,67.00
2018-12-21T02:58:11.698Z,67.10
2018-12-21T03:03:15.021Z,67.10
2018-12-21T03:08:18.333Z,67.00
2018-12-21T03:13:21.678Z,67.10
2018-12-21T03:18:24.926Z,67.40
2018-12-21T03:23:28.157Z,67.20
2018-12-21T03:28:31.377Z,67.10
2018-12-21T03:33:34.657Z,66.90
2018-12-21T03:38:37.889Z,67.50
2018-12-21T03:43:41.738Z,66.50
2018-12-21T03:48:44.965Z,67.10
2018-12-21T03:53:48.170Z,66.70
2018-12-21T03:58:51.483Z,66.80
2018-12-21T04:03:54.790Z,66.80
2018-12-21T04:08:58.134Z,66.50
2018-12-21T04:14:01.352Z,67.50
2018-12-21T04:19:04.557Z,66.40
2018-12-21T04:24:07.765Z,66.50
2018-12-21T04:29:10.982Z,66.80
2018-12-21T04:34:14.268Z,66.90
2018-12-21T04:39:17.550Z,66.80
2018-12-21T04:44:20.754Z,66.70
2018-12-21T04:49:23.993Z,66.60
2018-12-21T04:54:27.217Z,66.70
2018-12-21T04:59:30.514Z,66.70
2018-12-21T05:04:33.757Z,67.00
2018-12-21T05:09:36.954Z,66.50
2018-12-21T05:14:40.188Z,66.50
2018-12-21T05:19:43.513Z,66.60
2018-12-21T05:24:46.723Z,66.70
2018-12-21T05:29:49.929Z,66.80
2018-12-21T05:34:53.226Z,66.50
2018-12-21T05:39:56.437Z,66.50
2018-12-21T05:44:59.833Z,66.60
2018-12-21T05:50:03.034Z,66.60
2018-12-21T05:55:06.329Z,66.60
2018-12-21T06:00:10.388Z,67.00
2018-12-21T06:05:13.678Z,66.50
2018-12-21T06:10:16.875Z,67.00
2018-12-21T06:15:20.594Z,67.00
2018-12-21T06:20:23.810Z,67.40
2018-12-21T06:25:27.019Z,67.50
2018-12-21T06:30:30.666Z,67.80
2018-12-21T06:35:35.094Z,68.20
2018-12-21T06:40:38.282Z,68.90
2018-12-21T06:45:41.498Z,68.10
2018-12-21T06:50:44.702Z,68.60
2018-12-21T06:55:47.903Z,68.40
2018-12-21T07:00:51.308Z,68.40
2018-12-21T07:05:54.557Z,68.50
2018-12-21T07:10:57.784Z,68.60
2018-12-21T07:16:00.978Z,68.60
2018-12-21T07:21:04.478Z,68.50
2018-12-21T07:26:07.681Z,68.70
2018-12-21T07:31:10.885Z,68.70
2018-12-21T07:36:14.102Z,68.80
2018-12-21T07:41:17.323Z,68.60
2018-12-21T07:46:20.530Z,68.80
2018-12-21T07:51:23.735Z,69.00
2018-12-21T07:56:27.654Z,69.20
2018-12-21T08:01:31.582Z,69.30
2018-12-21T08:06:34.802Z,69.50
2018-12-21T08:11:38.026Z,69.60
2018-12-21T08:16:41.291Z,69.70
2018-12-21T08:21:44.510Z,70.00
2018-12-21T08:26:47.705Z,69.60
2018-12-21T08:31:50.945Z,69.60
2018-12-21T08:36:54.192Z,70.00
2018-12-21T08:41:57.590Z,69.70
2018-12-21T08:47:00.798Z,70.30
2018-12-21T08:52:04.014Z,69.70
2018-12-21T08:57:07.258Z,69.90
2018-12-21T09:02:10.466Z,70.00
2018-12-21T09:07:13.674Z,69.90
2018-12-21T09:12:16.895Z,70.10
2018-12-21T09:17:20.138Z,70.90
2018-12-21T09:22:23.358Z,70.70
2018-12-21T09:27:26.586Z,70.20
2018-12-21T09:32:29.806Z,70.50
2018-12-21T09:37:33.030Z,70.60
2018-12-21T09:42:36.318Z,70.70
2018-12-21T09:47:39.568Z,69.70
2018-12-21T09:52:42.786Z,68.80
2018-12-21T09:57:46.021Z,69.70
2018-12-21T10:02:49.369Z,70.10
2018-12-21T10:07:52.627Z,70.30
2018-12-21T10:12:55.835Z,70.40
2018-12-21T10:17:59.185Z,70.30
2018-12-21T10:23:02.439Z,70.00
2018-12-21T10:28:05.646Z,71.00
2018-12-21T10:33:08.882Z,71.40
2018-12-21T10:38:12.199Z,72.70
2018-12-21T10:43:15.426Z,72.10
2018-12-21T10:48:18.669Z,72.00
2018-12-21T10:53:21.874Z,72.90
2018-12-21T10:58:25.102Z,72.70
2018-12-21T11:03:28.354Z,72.80
2018-12-21T11:08:31.563Z,73.30
2018-12-21T11:13:34.793Z,73.20
2018-12-21T11:18:38.098Z,73.50
2018-12-21T11:23:41.338Z,73.10
2018-12-21T11:28:44.581Z,73.80
2018-12-21T11:33:47.803Z,73.80
2018-12-21T11:38:51.050Z,73.40
2018-12-21T11:43:54.302Z,73.60
2018-12-21T11:48:57.526Z,73.70
2018-12-21T11:54:00.719Z,74.00
2018-12-21T11:59:04.034Z,73.60
2018-12-21T12:04:07.256Z,73.80
2018-12-21T12:09:10.471Z,74.30
2018-12-21T12:14:13.713Z,74.00
2018-12-21T12:19:17.801Z,74.70
2018-12-21T12:24:21.058Z,74.80
2018-12-21T12:29:24.297Z,74.20
2018-12-21T12:34:27.533Z,74.50
2018-12-21T12:39:30.748Z,74.90
2018-12-21T12:44:35.017Z,75.20
2018-12-21T12:49:38.241Z,75.00
2018-12-21T12:54:42.381Z,75.90
2018-12-21T12:59:45.732Z,75.20
2018-12-21T13:04:48.946Z,75.10
2018-12-21T13:09:52.206Z,75.60
2018-12-21T13:14:55.446Z,76.20
2018-12-21T13:19:58.670Z,76.40
2018-12-21T13:25:01.915Z,76.80
2018-12-21T13:30:11.826Z,76.80
2018-12-21T13:35:15.147Z,76.90
2018-12-21T13:40:18.570Z,77.20
2018-12-21T13:45:21.847Z,77.60
2018-12-21T13:50:25.168Z,77.00
2018-12-21T13:55:28.415Z,77.90
2018-12-21T14:00:31.653Z,77.40
2018-12-21T14:05:34.893Z,77.90
2018-12-21T14:10:38.152Z,78.10
2018-12-21T14:15:41.398Z,77.10
2018-12-21T14:20:44.655Z,78.60
2018-12-21T14:25:47.914Z,77.70
2018-12-21T14:30:51.202Z,78.30
2018-12-21T14:35:54.454Z,77.70
2018-12-21T14:40:57.679Z,78.20
2018-12-21T14:46:00.957Z,77.90
2018-12-21T14:51:04.369Z,77.00
2018-12-21T14:56:07.614Z,77.20
2018-12-21T15:01:10.845Z,77.00
2018-12-21T15:06:14.146Z,76.90
2018-12-21T15:11:17.514Z,76.80
2018-12-21T15:16:20.765Z,76.60
2018-12-21T15:21:24.195Z,76.50
2018-12-21T15:26:27.549Z,76.20
2018-12-21T15:31:30.839Z,75.60
2018-12-21T15:36:34.073Z,75.90
2018-12-21T15:41:37.322Z,75.20
2018-12-21T15:46:40.575Z,74.80
2018-12-21T15:51:44.826Z,74.70
2018-12-21T15:56:48.771Z,74.60
2018-12-21T16:01:52.013Z,74.00
2018-12-21T16:06:55.348Z,74.00
2018-12-21T16:11:58.843Z,73.70
2018-12-21T16:17:02.156Z,73.60
2018-12-21T16:22:05.514Z,73.10
2018-12-21T16:27:08.762Z,73.00
2018-12-21T16:32:12.035Z,72.60
2018-12-21T16:37:15.316Z,72.40
2018-12-21T16:42:18.574Z,72.50
2018-12-21T16:47:21.835Z,72.40
2018-12-21T16:52:25.045Z,72.20
2018-12-21T16:57:28.298Z,72.30
2018-12-21T17:02:31.522Z,71.80
2018-12-21T17:07:34.851Z,71.40
2018-12-21T17:12:38.128Z,71.00
2018-12-21T17:17:41.438Z,69.90
2018-12-21T17:22:45.439Z,71.10
2018-12-21T17:27:48.739Z,71.20
2018-12-21T17:32:51.973Z,71.40
2018-12-21T17:37:55.259Z,71.50
2018-12-21T17:42:58.633Z,71.60
2018-12-21T17:48:02.426Z,71.70
2018-12-21T17:53:05.733Z,71.50
2018-12-21T17:58:09.003Z,71.80
2018-12-21T18:03:19.738Z,71.80
2018-12-21T18:08:22.984Z,71.40
2018-12-21T18:13:26.256Z,71.40
2018-12-21T18:18:29.634Z,71.20
2018-12-21T18:23:34.623Z,71.20
2018-12-21T18:28:37.897Z,70.50
2018-12-21T18:33:43.088Z,70.60
2018-12-21T18:38:46.379Z,70.50
2018-12-21T18:43:49.650Z,70.20
2018-12-21T18:48:52.947Z,70.40
2018-12-21T18:53:56.643Z,70.30
2018-12-21T18:58:59.906Z,70.10
2018-12-21T19:04:03.167Z,70.10
2018-12-21T19:09:06.616Z,70.20
2018-12-21T19:14:09.982Z,69.80
2018-12-21T19:19:13.991Z,69.40
2018-12-21T19:24:17.263Z,69.20
2018-12-21T19:29:20.537Z,69.30
2018-12-21T19:34:23.776Z,69.20
2018-12-21T19:39:27.090Z,69.20
2018-12-21T19:44:30.456Z,75.70
2018-12-21T19:49:33.856Z,69.40
2018-12-21T19:54:37.222Z,69.40
2018-12-21T19:59:40.530Z,69.30
2018-12-21T20:04:43.766Z,69.30
2018-12-21T20:09:47.017Z,69.10
2018-12-21T20:14:50.325Z,69.00
2018-12-21T20:19:53.639Z,68.80
2018-12-21T20:24:56.880Z,69.60
2018-12-21T20:30:00.267Z,68.60
2018-12-21T20:40:12.885Z,68.90
2018-12-21T20:45:16.248Z,68.80
2018-12-21T20:50:19.548Z,68.80
2018-12-21T20:55:22.857Z,68.80
2018-12-21T21:00:26.274Z,69.30
2018-12-21T21:05:29.578Z,69.30
2018-12-21T21:10:32.954Z,69.20
2018-12-21T21:15:37.243Z,69.10
2018-12-21T21:20:40.555Z,69.00
2018-12-21T21:25:43.857Z,69.30
2018-12-21T21:30:47.454Z,69.20
2018-12-21T21:35:50.744Z,69.10
2018-12-21T21:40:53.978Z,69.10
2018-12-21T21:45:57.218Z,69.00
2018-12-21T21:51:00.467Z,69.00
2018-12-21T21:56:03.750Z,69.20
2018-12-21T22:01:07.022Z,68.80
2018-12-21T22:06:10.598Z,68.80
2018-12-21T22:11:13.883Z,68.70
2018-12-21T22:16:18.173Z,68.70
2018-12-21T22:21:21.434Z,68.80
2018-12-21T22:26:24.738Z,69.00
2018-12-21T22:31:28.046Z,68.90
2018-12-21T22:36:31.335Z,68.80
2018-12-21T22:41:34.665Z,69.00
2018-12-21T22:46:37.915Z,68.90
2018-12-21T22:51:41.164Z,69.00
2018-12-21T22:56:44.414Z,69.20
2018-12-21T23:01:47.666Z,69.50
2018-12-21T23:06:50.927Z,69.40
2018-12-21T23:11:54.190Z,69.30
2018-12-21T23:16:57.480Z,69.30
2018-12-21T23:22:00.739Z,69.60
2018-12-21T23:27:04.084Z,69.70
2018-12-21T23:32:07.343Z,69.60
2018-12-21T23:37:10.594Z,69.60
2018-12-21T23:42:13.970Z,69.80
2018-12-21T23:47:17.223Z,69.90
2018-12-21T23:52:20.815Z,69.70
2018-12-21T23:57:24.054Z,69.80
